Time;durP1;ratioP1;P1;durP2;ratioP2;P2;SDS_P1;SDS_P2;PMS_P1;PMS_P2;Temp;Humidity;BMP_temperature;BMP_pressure;BME280_temperature;BME280_humidity;BME280_pressure;Samples;Min_cycle;Max_cycle;Signal;HPM_P1;HPM_P2
2020/08/20 02:09:29;;;;;;;0;0;;;;;;;0;0;0;;;;
2020/08/20 02:10:38;;;;;;;0;0;;;;;;;0;0;0;;;;
2020/08/20 02:11:44;;;;;;;0;0;;;;;;;0;0;0;;;;
2020/08/20 02:12:50;;;;;;;0;0;;;;;;;0;0;0;;;;
2020/08/20 02:14:01;;;;;;;0;0;;;;;;;0;0;0;;;;
2020/08/20 02:15:07;;;;;;;0;0;;;;;;;0;0;0;;;;
2020/08/20 02:16:11;;;;;;;0;0;;;;;;;0;0;0;;;;
2020/08/20 02:17:23;;;;;;;0;0;;;;;;;0;0;0;;;;
2020/08/20 02:18:28;;;;;;;0;0;;;;;;;0;0;0;;;;
2020/08/20 02:19:31;;;;;;;0;0;;;;;;;0;0;0;;;;
2020/08/20 02:20:37;;;;;;;0;0;;;;;;;0;0;0;;;;
2020/08/20 02:21:42;;;;;;;0;0;;;;;;;0;0;0;;;;
2020/08/20 02:22:49;;;;;;;0;0;;;;;;;0;0;0;;;;
2020/08/20 02:23:54;;;;;;;0;0;;;;;;;0;0;0;;;;
2020/08/20 02:25:00;;;;;;;0;0;;;;;;;0;0;0;;;;
2020/08/20 02:26:03;;;;;;;0;0;;;;;;;0;0;0;;;;
2020/08/20 02:27:11;;;;;;;0;0;;;;;;;0;0;0;;;;
2020/08/20 02:28:16;;;;;;;0;0;;;;;;;0;0;0;;;;
2020/08/20 02:29:22;;;;;;;0;0;;;;;;;0;0;0;;;;
2020/08/20 02:30:28;;;;;;;0;0;;;;;;;0;0;0;;;;
2020/08/20 02:31:33;;;;;;;0;0;;;;;;;0;0;0;;;;
2020/08/20 02:32:40;;;;;;;0;0;;;;;;;0;0;0;;;;
2020/08/20 02:33:45;;;;;;;0;0;;;;;;;0;0;0;;;;
2020/08/20 02:34:51;;;;;;;0;0;;;;;;;0;0;0;;;;
2020/08/20 02:35:57;;;;;;;0;0;;;;;;;0;0;0;;;;
2020/08/20 02:37:03;;;;;;;0;0;;;;;;;0;0;0;;;;
2020/08/20 02:38:08;;;;;;;0;0;;;;;;;0;0;0;;;;
2020/08/20 02:39:13;;;;;;;0;0;;;;;;;0;0;0;;;;
2020/08/20 02:40:14;;;;;;;0;0;;;;;;;0;0;0;;;;
2020/08/20 02:41:22;;;;;;;0;0;;;;;;;0;0;0;;;;
2020/08/20 02:42:28;;;;;;;0;0;;;;;;;0;0;0;;;;
2020/08/20 02:43:35;;;;;;;0;0;;;;;;;0;0;0;;;;
2020/08/20 02:44:42;;;;;;;0;0;;;;;;;0;0;0;;;;
2020/08/20 02:45:48;;;;;;;0;0;;;;;;;0;0;0;;;;
2020/08/20 02:46:54;;;;;;;0;0;;;;;;;0;0;0;;;;
2020/08/20 02:48:03;;;;;;;0;0;;;;;;;0;0;0;;;;
2020/08/20 02:49:07;;;;;;;0;0;;;;;;;0;0;0;;;;
2020/08/20 02:50:11;;;;;;;0;0;;;;;;;0;0;0;;;;
2020/08/20 02:51:21;;;;;;;0;0;;;;;;;0;0;0;;;;
2020/08/20 02:52:28;;;;;;;0;0;;;;;;;0;0;0;;;;
2020/08/20 02:53:36;;;;;;;0;0;;;;;;;0;0;0;;;;
2020/08/20 02:54:41;;;;;;;0;0;;;;;;;0;0;0;;;;
2020/08/20 02:55:46;;;;;;;0;0;;;;;;;0;0;0;;;;
2020/08/20 02:56:47;;;;;;;0;0;;;;;;;0;0;0;;;;
2020/08/20 02:57:52;;;;;;;0;0;;;;;;;0;0;0;;;;
2020/08/20 02:58:55;;;;;;;0;0;;;;;;;0;0;0;;;;
2020/08/20 03:00:01;;;;;;;0;0;;;;;;;0;0;0;;;;
2020/08/20 03:01:07;;;;;;;0;0;;;;;;;0;0;0;;;;
2020/08/20 03:02:13;;;;;;;0;0;;;;;;;0;0;0;;;;
2020/08/20 03:03:21;;;;;;;0;0;;;;;;;0;0;0;;;;
2020/08/20 03:04:31;;;;;;;0;0;;;;;;;0;0;0;;;;
2020/08/20 03:05:37;;;;;;;0;0;;;;;;;0;0;0;;;;
2020/08/20 03:06:39;;;;;;;0;0;;;;;;;0;0;0;;;;
2020/08/20 03:07:43;;;;;;;0;0;;;;;;;0;0;0;;;;
2020/08/20 03:08:45;;;;;;;0;0;;;;;;;0;0;0;;;;
2020/08/20 03:09:51;;;;;;;0;0;;;;;;;0;0;0;;;;
2020/08/20 03:10:56;;;;;;;0;0;;;;;;;0;0;0;;;;
2020/08/20 03:12:01;;;;;;;0;0;;;;;;;0;0;0;;;;
2020/08/20 03:13:06;;;;;;;0;0;;;;;;;0;0;0;;;;
2020/08/20 03:14:09;;;;;;;0;0;;;;;;;0;0;0;;;;
2020/08/20 03:15:14;;;;;;;0;0;;;;;;;0;0;0;;;;
2020/08/20 03:16:21;;;;;;;0;0;;;;;;;0;0;0;;;;
2020/08/20 03:17:36;;;;;;;0;0;;;;;;;0;0;0;;;;
2020/08/20 03:18:41;;;;;;;0;0;;;;;;;0;0;0;;;;
2020/08/20 03:19:43;;;;;;;0;0;;;;;;;0;0;0;;;;
2020/08/20 03:20:49;;;;;;;0;0;;;;;;;0;0;0;;;;
2020/08/20 03:21:54;;;;;;;0;0;;;;;;;0;0;0;;;;
2020/08/20 03:22:58;;;;;;;0;0;;;;;;;0;0;0;;;;
2020/08/20 03:24:06;;;;;;;0;0;;;;;;;0;0;0;;;;
2020/08/20 03:25:10;;;;;;;0;0;;;;;;;0;0;0;;;;
2020/08/20 03:26:15;;;;;;;0;0;;;;;;;0;0;0;;;;
2020/08/20 03:27:20;;;;;;;0;0;;;;;;;0;0;0;;;;
2020/08/20 03:28:27;;;;;;;0;0;;;;;;;0;0;0;;;;
2020/08/20 03:29:36;;;;;;;0;0;;;;;;;0;0;0;;;;
2020/08/20 03:30:37;;;;;;;0;0;;;;;;;0;0;0;;;;
2020/08/20 03:31:43;;;;;;;0;0;;;;;;;0;0;0;;;;
2020/08/20 03:32:46;;;;;;;0;0;;;;;;;0;0;0;;;;
2020/08/20 03:33:47;;;;;;;0;0;;;;;;;0;0;0;;;;
2020/08/20 03:34:52;;;;;;;0;0;;;;;;;0;0;0;;;;
2020/08/20 03:35:56;;;;;;;0;0;;;;;;;0;0;0;;;;
2020/08/20 03:36:59;;;;;;;0;0;;;;;;;0;0;0;;;;
2020/08/20 03:38:03;;;;;;;0;0;;;;;;;0;0;0;;;;
2020/08/20 03:39:09;;;;;;;0;0;;;;;;;0;0;0;;;;
2020/08/20 03:40:14;;;;;;;0;0;;;;;;;0;0;0;;;;
2020/08/20 03:41:22;;;;;;;0;0;;;;;;;0;0;0;;;;
2020/08/20 03:42:29;;;;;;;0;0;;;;;;;0;0;0;;;;
2020/08/20 03:43:35;;;;;;;0;0;;;;;;;0;0;0;;;;
2020/08/20 03:44:41;;;;;;;0;0;;;;;;;0;0;0;;;;
2020/08/20 03:45:53;;;;;;;0;0;;;;;;;0;0;0;;;;
2020/08/20 03:46:59;;;;;;;0;0;;;;;;;0;0;0;;;;
2020/08/20 03:48:22;;;;;;;0;0;;;;;;;0;0;0;;;;
2020/08/20 03:49:30;;;;;;;0;0;;;;;;;0;0;0;;;;
2020/08/20 03:50:38;;;;;;;0;0;;;;;;;0;0;0;;;;
2020/08/20 03:51:48;;;;;;;0;0;;;;;;;0;0;0;;;;
2020/08/20 03:52:54;;;;;;;0;0;;;;;;;0;0;0;;;;
2020/08/20 03:53:56;;;;;;;0;0;;;;;;;0;0;0;;;;
2020/08/20 03:55:03;;;;;;;0;0;;;;;;;0;0;0;;;;
2020/08/20 03:56:14;;;;;;;0;0;;;;;;;0;0;0;;;;
2020/08/20 03:57:20;;;;;;;0;0;;;;;;;0;0;0;;;;
2020/08/20 03:58:25;;;;;;;0;0;;;;;;;0;0;0;;;;
2020/08/20 03:59:32;;;;;;;0;0;;;;;;;0;0;0;;;;
2020/08/20 04:00:38;;;;;;;0;0;;;;;;;0;0;0;;;;
2020/08/20 04:01:51;;;;;;;0;0;;;;;;;0;0;0;;;;
2020/08/20 04:03:00;;;;;;;0;0;;;;;;;0;0;0;;;;
2020/08/20 04:04:07;;;;;;;0;0;;;;;;;0;0;0;;;;
2020/08/20 04:05:26;;;;;;;0;0;;;;;;;0;0;0;;;;
2020/08/20 04:06:32;;;;;;;0;0;;;;;;;0;0;0;;;;
2020/08/20 04:07:46;;;;;;;0;0;;;;;;;0;0;0;;;;
2020/08/20 04:08:53;;;;;;;0;0;;;;;;;0;0;0;;;;
2020/08/20 04:10:03;;;;;;;0;0;;;;;;;0;0;0;;;;
2020/08/20 04:11:18;;;;;;;0;0;;;;;;;0;0;0;;;;
2020/08/20 04:12:28;;;;;;;0;0;;;;;;;0;0;0;;;;
2020/08/20 04:13:35;;;;;;;0;0;;;;;;;0;0;0;;;;
2020/08/20 04:14:39;;;;;;;0;0;;;;;;;0;0;0;;;;
2020/08/20 04:15:44;;;;;;;0;0;;;;;;;0;0;0;;;;
2020/08/20 04:16:50;;;;;;;0;0;;;;;;;0;0;0;;;;
2020/08/20 04:17:57;;;;;;;0;0;;;;;;;0;0;0;;;;
2020/08/20 04:19:03;;;;;;;0;0;;;;;;;0;0;0;;;;
2020/08/20 04:20:16;;;;;;;0;0;;;;;;;0;0;0;;;;
2020/08/20 04:21:29;;;;;;;0;0;;;;;;;0;0;0;;;;
2020/08/20 04:22:46;;;;;;;0;0;;;;;;;0;0;0;;;;
2020/08/20 04:23:51;;;;;;;0;0;;;;;;;0;0;0;;;;
2020/08/20 04:25:00;;;;;;;0;0;;;;;;;0;0;0;;;;
2020/08/20 04:26:08;;;;;;;0;0;;;;;;;0;0;0;;;;
2020/08/20 04:27:19;;;;;;;0;0;;;;;;;0;0;0;;;;
2020/08/20 04:28:27;;;;;;;0;0;;;;;;;0;0;0;;;;
2020/08/20 04:29:33;;;;;;;0;0;;;;;;;0;0;0;;;;
2020/08/20 04:30:39;;;;;;;0;0;;;;;;;0;0;0;;;;
2020/08/20 04:31:51;;;;;;;0;0;;;;;;;0;0;0;;;;
2020/08/20 04:32:59;;;;;;;0;0;;;;;;;0;0;0;;;;
2020/08/20 04:34:20;;;;;;;0;0;;;;;;;0;0;0;;;;
2020/08/20 04:35:25;;;;;;;0;0;;;;;;;0;0;0;;;;
2020/08/20 04:36:33;;;;;;;0;0;;;;;;;0;0;0;;;;
2020/08/20 04:37:40;;;;;;;0;0;;;;;;;0;0;0;;;;
2020/08/20 04:38:44;;;;;;;0;0;;;;;;;0;0;0;;;;
2020/08/20 04:39:48;;;;;;;0;0;;;;;;;0;0;0;;;;
2020/08/20 04:41:05;;;;;;;0;0;;;;;;;0;0;0;;;;
2020/08/20 04:42:13;;;;;;;0;0;;;;;;;0;0;0;;;;
2020/08/20 04:43:32;;;;;;;0;0;;;;;;;0;0;0;;;;
2020/08/20 04:44:37;;;;;;;0;0;;;;;;;0;0;0;;;;
2020/08/20 04:45:41;;;;;;;0;0;;;;;;;0;0;0;;;;
2020/08/20 04:46:46;;;;;;;0;0;;;;;;;0;0;0;;;;
2020/08/20 04:47:54;;;;;;;0;0;;;;;;;0;0;0;;;;
2020/08/20 04:49:04;;;;;;;0;0;;;;;;;0;0;0;;;;
2020/08/20 04:50:14;;;;;;;0;0;;;;;;;0;0;0;;;;
2020/08/20 04:51:33;;;;;;;0;0;;;;;;;0;0;0;;;;
2020/08/20 04:52:43;;;;;;;0;0;;;;;;;0;0;0;;;;
2020/08/20 04:53:54;;;;;;;0;0;;;;;;;0;0;0;;;;
2020/08/20 04:55:08;;;;;;;0;0;;;;;;;0;0;0;;;;
2020/08/20 04:56:18;;;;;;;0;0;;;;;;;0;0;0;;;;
2020/08/20 04:57:28;;;;;;;0;0;;;;;;;0;0;0;;;;
2020/08/20 04:58:33;;;;;;;0;0;;;;;;;0;0;0;;;;
2020/08/20 04:59:39;;;;;;;0;0;;;;;;;0;0;0;;;;
2020/08/20 05:00:44;;;;;;;0;0;;;;;;;0;0;0;;;;
2020/08/20 05:01:52;;;;;;;0;0;;;;;;;0;0;0;;;;
2020/08/20 05:02:57;;;;;;;0;0;;;;;;;0;0;0;;;;
2020/08/20 05:04:03;;;;;;;0;0;;;;;;;0;0;0;;;;
2020/08/20 05:05:10;;;;;;;0;0;;;;;;;0;0;0;;;;
2020/08/20 05:06:17;;;;;;;0;0;;;;;;;0;0;0;;;;
2020/08/20 05:07:29;;;;;;;0;0;;;;;;;0;0;0;;;;
2020/08/20 05:08:36;;;;;;;0;0;;;;;;;0;0;0;;;;
2020/08/20 05:09:40;;;;;;;0;0;;;;;;;0;0;0;;;;
2020/08/20 05:10:52;;;;;;;0;0;;;;;;;0;0;0;;;;
2020/08/20 05:12:07;;;;;;;0;0;;;;;;;0;0;0;;;;
2020/08/20 05:13:21;;;;;;;0;0;;;;;;;0;0;0;;;;
2020/08/20 05:14:27;;;;;;;0;0;;;;;;;0;0;0;;;;
2020/08/20 05:15:35;;;;;;;0;0;;;;;;;0;0;0;;;;
2020/08/20 05:16:46;;;;;;;0;0;;;;;;;0;0;0;;;;
2020/08/20 05:18:06;;;;;;;0;0;;;;;;;0;0;0;;;;
2020/08/20 05:19:26;;;;;;;0;0;;;;;;;0;0;0;;;;
2020/08/20 05:20:29;;;;;;;0;0;;;;;;;0;0;0;;;;
2020/08/20 05:21:40;;;;;;;0;0;;;;;;;0;0;0;;;;
2020/08/20 05:22:51;;;;;;;0;0;;;;;;;0;0;0;;;;
2020/08/20 05:23:56;;;;;;;0;0;;;;;;;0;0;0;;;;
2020/08/20 05:25:10;;;;;;;0;0;;;;;;;0;0;0;;;;
2020/08/20 05:26:33;;;;;;;0;0;;;;;;;0;0;0;;;;
2020/08/20 05:27:50;;;;;;;0;0;;;;;;;0;0;0;;;;
2020/08/20 05:28:54;;;;;;;0;0;;;;;;;0;0;0;;;;
2020/08/20 05:30:05;;;;;;;0;0;;;;;;;0;0;0;;;;
2020/08/20 05:31:37;;;;;;;0;0;;;;;;;0;0;0;;;;
2020/08/20 05:32:42;;;;;;;0;0;;;;;;;0;0;0;;;;
2020/08/20 05:33:48;;;;;;;0;0;;;;;;;0;0;0;;;;
2020/08/20 05:35:16;;;;;;;0;0;;;;;;;0;0;0;;;;
2020/08/20 05:36:29;;;;;;;0;0;;;;;;;0;0;0;;;;
2020/08/20 05:37:39;;;;;;;0;0;;;;;;;0;0;0;;;;
2020/08/20 05:38:43;;;;;;;0;0;;;;;;;0;0;0;;;;
2020/08/20 05:39:59;;;;;;;0;0;;;;;;;0;0;0;;;;
2020/08/20 05:41:11;;;;;;;0;0;;;;;;;0;0;0;;;;
2020/08/20 05:42:17;;;;;;;0;0;;;;;;;0;0;0;;;;
2020/08/20 05:43:26;;;;;;;0;0;;;;;;;0;0;0;;;;
2020/08/20 05:44:34;;;;;;;0;0;;;;;;;0;0;0;;;;
2020/08/20 05:45:39;;;;;;;0;0;;;;;;;0;0;0;;;;
2020/08/20 05:46:45;;;;;;;0;0;;;;;;;0;0;0;;;;
2020/08/20 05:47:53;;;;;;;0;0;;;;;;;0;0;0;;;;
2020/08/20 05:49:07;;;;;;;0;0;;;;;;;0;0;0;;;;
2020/08/20 05:50:14;;;;;;;0;0;;;;;;;0;0;0;;;;
2020/08/20 05:51:23;;;;;;;0;0;;;;;;;0;0;0;;;;
2020/08/20 05:52:29;;;;;;;0;0;;;;;;;0;0;0;;;;
2020/08/20 05:53:38;;;;;;;0;0;;;;;;;0;0;0;;;;
2020/08/20 05:54:47;;;;;;;0;0;;;;;;;0;0;0;;;;
2020/08/20 05:55:56;;;;;;;0;0;;;;;;;0;0;0;;;;
2020/08/20 05:57:03;;;;;;;0;0;;;;;;;0;0;0;;;;
2020/08/20 05:58:09;;;;;;;0;0;;;;;;;0;0;0;;;;
2020/08/20 05:59:19;;;;;;;0;0;;;;;;;0;0;0;;;;
2020/08/20 06:00:23;;;;;;;0;0;;;;;;;0;0;0;;;;
2020/08/20 06:01:31;;;;;;;0;0;;;;;;;0;0;0;;;;
2020/08/20 06:02:39;;;;;;;0;0;;;;;;;0;0;0;;;;
2020/08/20 06:03:45;;;;;;;0;0;;;;;;;0;0;0;;;;
2020/08/20 06:04:51;;;;;;;0;0;;;;;;;0;0;0;;;;
2020/08/20 06:06:01;;;;;;;0;0;;;;;;;0;0;0;;;;
2020/08/20 06:07:13;;;;;;;0;0;;;;;;;0;0;0;;;;
2020/08/20 06:08:19;;;;;;;0;0;;;;;;;0;0;0;;;;
2020/08/20 06:09:27;;;;;;;0;0;;;;;;;0;0;0;;;;
2020/08/20 06:10:35;;;;;;;0;0;;;;;;;0;0;0;;;;
2020/08/20 06:11:42;;;;;;;0;0;;;;;;;0;0;0;;;;
2020/08/20 06:12:49;;;;;;;0;0;;;;;;;0;0;0;;;;
2020/08/20 06:13:55;;;;;;;0;0;;;;;;;0;0;0;;;;
2020/08/20 06:15:08;;;;;;;0;0;;;;;;;0;0;0;;;;
2020/08/20 06:16:19;;;;;;;0;0;;;;;;;0;0;0;;;;
2020/08/20 06:17:24;;;;;;;0;0;;;;;;;0;0;0;;;;
2020/08/20 06:18:38;;;;;;;0;0;;;;;;;0;0;0;;;;
2020/08/20 06:19:43;;;;;;;0;0;;;;;;;0;0;0;;;;
2020/08/20 06:20:47;;;;;;;0;0;;;;;;;0;0;0;;;;
2020/08/20 06:21:52;;;;;;;0;0;;;;;;;0;0;0;;;;
2020/08/20 06:22:57;;;;;;;0;0;;;;;;;0;0;0;;;;
2020/08/20 06:24:05;;;;;;;0;0;;;;;;;0;0;0;;;;
2020/08/20 06:25:12;;;;;;;0;0;;;;;;;0;0;0;;;;
2020/08/20 06:26:19;;;;;;;0;0;;;;;;;0;0;0;;;;
2020/08/20 06:27:25;;;;;;;0;0;;;;;;;0;0;0;;;;
2020/08/20 06:28:30;;;;;;;0;0;;;;;;;0;0;0;;;;
2020/08/20 06:29:35;;;;;;;0;0;;;;;;;0;0;0;;;;
2020/08/20 06:30:40;;;;;;;0;0;;;;;;;0;0;0;;;;
2020/08/20 06:31:46;;;;;;;0;0;;;;;;;0;0;0;;;;
2020/08/20 06:32:53;;;;;;;0;0;;;;;;;0;0;0;;;;
2020/08/20 06:34:00;;;;;;;0;0;;;;;;;0;0;0;;;;
2020/08/20 06:35:07;;;;;;;0;0;;;;;;;0;0;0;;;;
2020/08/20 06:36:12;;;;;;;0;0;;;;;;;0;0;0;;;;
2020/08/20 06:37:20;;;;;;;0;0;;;;;;;0;0;0;;;;
2020/08/20 06:38:28;;;;;;;0;0;;;;;;;0;0;0;;;;
2020/08/20 06:39:35;;;;;;;0;0;;;;;;;0;0;0;;;;
2020/08/20 06:40:42;;;;;;;0;0;;;;;;;0;0;0;;;;
2020/08/20 06:41:48;;;;;;;0;0;;;;;;;0;0;0;;;;
2020/08/20 06:42:56;;;;;;;0;0;;;;;;;0;0;0;;;;
2020/08/20 06:44:02;;;;;;;0;0;;;;;;;0;0;0;;;;
2020/08/20 06:45:07;;;;;;;0;0;;;;;;;0;0;0;;;;
2020/08/20 06:46:19;;;;;;;0;0;;;;;;;0;0;0;;;;
2020/08/20 06:47:25;;;;;;;0;0;;;;;;;0;0;0;;;;
2020/08/20 06:48:31;;;;;;;0;0;;;;;;;0;0;0;;;;
2020/08/20 06:49:36;;;;;;;0;0;;;;;;;0;0;0;;;;
2020/08/20 06:50:46;;;;;;;0;0;;;;;;;0;0;0;;;;
2020/08/20 06:51:53;;;;;;;0;0;;;;;;;0;0;0;;;;
2020/08/20 06:52:58;;;;;;;0;0;;;;;;;0;0;0;;;;
2020/08/20 06:54:10;;;;;;;0;0;;;;;;;0;0;0;;;;
2020/08/20 06:55:23;;;;;;;0;0;;;;;;;0;0;0;;;;
2020/08/20 06:56:29;;;;;;;0;0;;;;;;;0;0;0;;;;
2020/08/20 06:57:38;;;;;;;0;0;;;;;;;0;0;0;;;;
2020/08/20 06:58:44;;;;;;;0;0;;;;;;;0;0;0;;;;
2020/08/20 06:59:50;;;;;;;0;0;;;;;;;0;0;0;;;;
2020/08/20 07:00:56;;;;;;;0;0;;;;;;;0;0;0;;;;
2020/08/20 07:02:08;;;;;;;0;0;;;;;;;0;0;0;;;;
2020/08/20 07:03:18;;;;;;;0;0;;;;;;;0;0;0;;;;
2020/08/20 07:04:30;;;;;;;0;0;;;;;;;0;0;0;;;;
2020/08/20 07:05:45;;;;;;;0;0;;;;;;;0;0;0;;;;
2020/08/20 07:06:52;;;;;;;0;0;;;;;;;0;0;0;;;;
2020/08/20 07:08:01;;;;;;;0;0;;;;;;;0;0;0;;;;
2020/08/20 07:09:19;;;;;;;0;0;;;;;;;0;0;0;;;;
2020/08/20 07:10:27;;;;;;;0;0;;;;;;;0;0;0;;;;
2020/08/20 07:11:34;;;;;;;0;0;;;;;;;0;0;0;;;;
2020/08/20 07:12:46;;;;;;;0;0;;;;;;;0;0;0;;;;
2020/08/20 07:14:01;;;;;;;0;0;;;;;;;0;0;0;;;;
2020/08/20 07:15:12;;;;;;;0;0;;;;;;;0;0;0;;;;
2020/08/20 07:16:23;;;;;;;0;0;;;;;;;0;0;0;;;;
2020/08/20 07:17:31;;;;;;;0;0;;;;;;;0;0;0;;;;
2020/08/20 07:18:37;;;;;;;0;0;;;;;;;0;0;0;;;;
2020/08/20 07:19:49;;;;;;;0;0;;;;;;;0;0;0;;;;
2020/08/20 07:20:54;;;;;;;0;0;;;;;;;0;0;0;;;;
2020/08/20 07:22:03;;;;;;;0;0;;;;;;;0;0;0;;;;
2020/08/20 07:23:11;;;;;;;0;0;;;;;;;0;0;0;;;;
2020/08/20 07:24:16;;;;;;;0;0;;;;;;;0;0;0;;;;
2020/08/20 07:25:29;;;;;;;0;0;;;;;;;0;0;0;;;;
2020/08/20 07:26:36;;;;;;;0;0;;;;;;;0;0;0;;;;
2020/08/20 07:27:45;;;;;;;0;0;;;;;;;0;0;0;;;;
2020/08/20 07:28:54;;;;;;;0;0;;;;;;;0;0;0;;;;
2020/08/20 07:29:55;;;;;;;0;0;;;;;;;0;0;0;;;;
2020/08/20 07:30:58;;;;;;;0;0;;;;;;;0;0;0;;;;
2020/08/20 07:32:02;;;;;;;0;0;;;;;;;0;0;0;;;;
2020/08/20 07:33:07;;;;;;;0;0;;;;;;;0;0;0;;;;
2020/08/20 07:34:13;;;;;;;0;0;;;;;;;0;0;0;;;;
2020/08/20 07:35:18;;;;;;;0;0;;;;;;;0;0;0;;;;
2020/08/20 07:36:31;;;;;;;0;0;;;;;;;0;0;0;;;;
2020/08/20 07:37:43;;;;;;;0;0;;;;;;;0;0;0;;;;
2020/08/20 07:38:49;;;;;;;3.400001;1.9;;;;;;;25.7;59.0918;94881.8;;;;
2020/08/20 07:39:53;;;;;;;3.400001;1.9;;;;;;;25.7;59.0918;94881.8;;;;
2020/08/20 07:40:58;;;;;;;3.400001;1.9;;;;;;;25.7;59.0918;94881.8;;;;
2020/08/20 07:42:03;;;;;;;3.400001;1.9;;;;;;;25.7;59.0918;94881.8;;;;
2020/08/20 07:43:17;;;;;;;3.400001;1.9;;;;;;;25.7;59.0918;94881.8;;;;
2020/08/20 07:44:24;;;;;;;3.400001;1.9;;;;;;;25.7;59.0918;94881.8;;;;
2020/08/20 07:45:30;;;;;;;3.400001;1.9;;;;;;;25.7;59.0918;94881.8;;;;
2020/08/20 07:46:36;;;;;;;3.400001;1.9;;;;;;;25.7;59.0918;94881.8;;;;
2020/08/20 07:47:40;;;;;;;3.400001;1.9;;;;;;;25.7;59.0918;94881.8;;;;
2020/08/20 07:48:43;;;;;;;2.750001;1.9;;;;;;;26.39;58.5918;94892.91;;;;
2020/08/20 07:49:49;;;;;;;2.750001;1.9;;;;;;;26.39;58.5918;94892.91;;;;
2020/08/20 07:50:54;;;;;;;2.750001;1.9;;;;;;;26.39;58.5918;94892.91;;;;
2020/08/20 07:51:55;;;;;;;2.750001;1.9;;;;;;;26.39;58.5918;94892.91;;;;
2020/08/20 07:53:01;;;;;;;2.750001;1.9;;;;;;;26.39;58.5918;94892.91;;;;
2020/08/20 07:54:07;;;;;;;2.750001;1.9;;;;;;;26.39;58.5918;94892.91;;;;
2020/08/20 07:55:11;;;;;;;2.750001;1.9;;;;;;;26.39;58.5918;94892.91;;;;
2020/08/20 07:56:15;;;;;;;2.750001;1.9;;;;;;;26.39;58.5918;94892.91;;;;
2020/08/20 07:57:20;;;;;;;2.750001;1.9;;;;;;;26.39;58.5918;94892.91;;;;
2020/08/20 07:58:21;;;;;;;2.750001;1.9;;;;;;;26.39;58.5918;94892.91;;;;
2020/08/20 07:59:27;;;;;;;2.55;1.6;;;;;;;28.38;56.10547;94917.44;;;;
2020/08/20 08:00:32;;;;;;;2.55;1.6;;;;;;;28.38;56.10547;94917.44;;;;
2020/08/20 08:01:37;;;;;;;2.55;1.6;;;;;;;28.38;56.10547;94917.44;;;;
2020/08/20 08:02:44;;;;;;;2.55;1.6;;;;;;;28.38;56.10547;94917.44;;;;
2020/08/20 08:03:51;;;;;;;2.55;1.6;;;;;;;28.38;56.10547;94917.44;;;;
2020/08/20 08:04:55;;;;;;;2.55;1.6;;;;;;;28.38;56.10547;94917.44;;;;
2020/08/20 08:05:58;;;;;;;2.55;1.6;;;;;;;28.38;56.10547;94917.44;;;;
2020/08/20 08:07:06;;;;;;;2.55;1.6;;;;;;;28.38;56.10547;94917.44;;;;
2020/08/20 08:08:12;;;;;;;2.55;1.6;;;;;;;28.38;56.10547;94917.44;;;;
2020/08/20 08:09:17;;;;;;;2.55;1.6;;;;;;;28.38;56.10547;94917.44;;;;
2020/08/20 08:10:22;;;;;;;2;1.7;;;;;;;30.44;53.33203;94935.72;;;;
2020/08/20 08:11:28;;;;;;;2;1.7;;;;;;;30.44;53.33203;94935.72;;;;
2020/08/20 08:12:33;;;;;;;2;1.7;;;;;;;30.44;53.33203;94935.72;;;;
2020/08/20 08:13:34;;;;;;;2;1.7;;;;;;;30.44;53.33203;94935.72;;;;
2020/08/20 08:14:35;;;;;;;2;1.7;;;;;;;30.44;53.33203;94935.72;;;;
2020/08/20 08:15:47;;;;;;;2;1.7;;;;;;;30.44;53.33203;94935.72;;;;
2020/08/20 08:16:47;;;;;;;2;1.7;;;;;;;30.44;53.33203;94935.72;;;;
2020/08/20 08:17:50;;;;;;;2;1.7;;;;;;;30.44;53.33203;94935.72;;;;
2020/08/20 08:18:56;;;;;;;2;1.7;;;;;;;30.44;53.33203;94935.72;;;;
2020/08/20 08:19:57;;;;;;;2;1.7;;;;;;;30.44;53.33203;94935.72;;;;
2020/08/20 08:21:03;;;;;;;1.9;1.7;;;;;;;32.4;49.70215;94946.31;;;;
2020/08/20 08:22:07;;;;;;;1.9;1.7;;;;;;;32.4;49.70215;94946.31;;;;
2020/08/20 08:23:12;;;;;;;1.9;1.7;;;;;;;32.4;49.70215;94946.31;;;;
2020/08/20 08:24:17;;;;;;;1.9;1.7;;;;;;;32.4;49.70215;94946.31;;;;
2020/08/20 08:25:24;;;;;;;1.9;1.7;;;;;;;32.4;49.70215;94946.31;;;;
2020/08/20 08:26:30;;;;;;;1.9;1.7;;;;;;;32.4;49.70215;94946.31;;;;
2020/08/20 08:27:36;;;;;;;1.9;1.7;;;;;;;32.4;49.70215;94946.31;;;;
2020/08/20 08:28:42;;;;;;;1.9;1.7;;;;;;;32.4;49.70215;94946.31;;;;
2020/08/20 08:29:50;;;;;;;1.9;1.7;;;;;;;32.4;49.70215;94946.31;;;;
2020/08/20 08:30:56;;;;;;;1.9;1.7;;;;;;;32.4;49.70215;94946.31;;;;
2020/08/20 08:32:00;;;;;;;1.8;1.7;;;;;;;32.03;49.66211;94949.27;;;;
2020/08/20 08:33:12;;;;;;;1.8;1.7;;;;;;;32.03;49.66211;94949.27;;;;
2020/08/20 08:34:17;;;;;;;1.8;1.7;;;;;;;32.03;49.66211;94949.27;;;;
2020/08/20 08:35:23;;;;;;;1.8;1.7;;;;;;;32.03;49.66211;94949.27;;;;
2020/08/20 08:36:28;;;;;;;1.8;1.7;;;;;;;32.03;49.66211;94949.27;;;;
2020/08/20 08:37:35;;;;;;;1.8;1.7;;;;;;;32.03;49.66211;94949.27;;;;
2020/08/20 08:38:39;;;;;;;1.8;1.7;;;;;;;32.03;49.66211;94949.27;;;;
2020/08/20 08:39:40;;;;;;;1.8;1.7;;;;;;;32.03;49.66211;94949.27;;;;
2020/08/20 08:40:46;;;;;;;1.8;1.7;;;;;;;32.03;49.66211;94949.27;;;;
2020/08/20 08:41:50;;;;;;;2.95;1.75;;;;;;;31.81;49.1416;94952.75;;;;
2020/08/20 08:42:56;;;;;;;2.95;1.75;;;;;;;31.81;49.1416;94952.75;;;;
2020/08/20 08:44:02;;;;;;;2.95;1.75;;;;;;;31.81;49.1416;94952.75;;;;
2020/08/20 08:45:06;;;;;;;2.95;1.75;;;;;;;31.81;49.1416;94952.75;;;;
2020/08/20 08:46:18;;;;;;;2.95;1.75;;;;;;;31.81;49.1416;94952.75;;;;
2020/08/20 08:47:23;;;;;;;2.95;1.75;;;;;;;31.81;49.1416;94952.75;;;;
2020/08/20 08:48:28;;;;;;;2.95;1.75;;;;;;;31.81;49.1416;94952.75;;;;
2020/08/20 08:49:34;;;;;;;2.95;1.75;;;;;;;31.81;49.1416;94952.75;;;;
2020/08/20 08:50:40;;;;;;;2.95;1.75;;;;;;;31.81;49.1416;94952.75;;;;
2020/08/20 08:51:44;;;;;;;2.95;1.75;;;;;;;31.81;49.1416;94952.75;;;;
2020/08/20 08:52:49;;;;;;;2.3;1.7;;;;;;;31.78;48.50488;94967.47;;;;
2020/08/20 08:53:54;;;;;;;2.3;1.7;;;;;;;31.78;48.50488;94967.47;;;;
2020/08/20 08:54:58;;;;;;;2.3;1.7;;;;;;;31.78;48.50488;94967.47;;;;
2020/08/20 08:56:00;;;;;;;2.3;1.7;;;;;;;31.78;48.50488;94967.47;;;;
2020/08/20 08:57:06;;;;;;;2.3;1.7;;;;;;;31.78;48.50488;94967.47;;;;
2020/08/20 08:58:13;;;;;;;2.3;1.7;;;;;;;31.78;48.50488;94967.47;;;;
2020/08/20 08:59:20;;;;;;;2.3;1.7;;;;;;;31.78;48.50488;94967.47;;;;
2020/08/20 09:00:25;;;;;;;2.3;1.7;;;;;;;31.78;48.50488;94967.47;;;;
2020/08/20 09:01:31;;;;;;;2.3;1.7;;;;;;;31.78;48.50488;94967.47;;;;
2020/08/20 09:02:38;;;;;;;2.3;1.7;;;;;;;31.78;48.50488;94967.47;;;;
2020/08/20 09:03:43;;;;;;;3.7;1.8;;;;;;;31.19;48.45313;94982.7;;;;
2020/08/20 09:04:48;;;;;;;3.7;1.8;;;;;;;31.19;48.45313;94982.7;;;;
2020/08/20 09:05:51;;;;;;;3.7;1.8;;;;;;;31.19;48.45313;94982.7;;;;
2020/08/20 09:06:56;;;;;;;3.7;1.8;;;;;;;31.19;48.45313;94982.7;;;;
2020/08/20 09:08:02;;;;;;;3.7;1.8;;;;;;;31.19;48.45313;94982.7;;;;
2020/08/20 09:09:07;;;;;;;3.7;1.8;;;;;;;31.19;48.45313;94982.7;;;;
2020/08/20 09:10:15;;;;;;;3.7;1.8;;;;;;;31.19;48.45313;94982.7;;;;
2020/08/20 09:11:21;;;;;;;3.7;1.8;;;;;;;31.19;48.45313;94982.7;;;;
2020/08/20 09:12:26;;;;;;;3.7;1.8;;;;;;;31.19;48.45313;94982.7;;;;
2020/08/20 09:13:33;;;;;;;2.4;1.6;;;;;;;30.47;48.52246;94985.96;;;;
2020/08/20 09:14:38;;;;;;;2.4;1.6;;;;;;;30.47;48.52246;94985.96;;;;
2020/08/20 09:15:44;;;;;;;2.4;1.6;;;;;;;30.47;48.52246;94985.96;;;;
2020/08/20 09:16:49;;;;;;;2.4;1.6;;;;;;;30.47;48.52246;94985.96;;;;
2020/08/20 09:17:55;;;;;;;2.4;1.6;;;;;;;30.47;48.52246;94985.96;;;;
2020/08/20 09:18:58;;;;;;;2.4;1.6;;;;;;;30.47;48.52246;94985.96;;;;
2020/08/20 09:20:05;;;;;;;2.4;1.6;;;;;;;30.47;48.52246;94985.96;;;;
2020/08/20 09:21:10;;;;;;;2.4;1.6;;;;;;;30.47;48.52246;94985.96;;;;
2020/08/20 09:22:16;;;;;;;2.4;1.6;;;;;;;30.47;48.52246;94985.96;;;;
2020/08/20 09:23:22;;;;;;;2.4;1.6;;;;;;;30.47;48.52246;94985.96;;;;
2020/08/20 09:24:28;;;;;;;1.9;1.8;;;;;;;30.27;48.32129;94982.15;;;;
2020/08/20 09:25:33;;;;;;;1.9;1.8;;;;;;;30.27;48.32129;94982.15;;;;
2020/08/20 09:26:37;;;;;;;1.9;1.8;;;;;;;30.27;48.32129;94982.15;;;;
2020/08/20 09:27:44;;;;;;;1.9;1.8;;;;;;;30.27;48.32129;94982.15;;;;
2020/08/20 09:28:49;;;;;;;1.9;1.8;;;;;;;30.27;48.32129;94982.15;;;;
2020/08/20 09:29:53;;;;;;;1.9;1.8;;;;;;;30.27;48.32129;94982.15;;;;
2020/08/20 09:30:59;;;;;;;1.9;1.8;;;;;;;30.27;48.32129;94982.15;;;;
2020/08/20 09:32:06;;;;;;;1.9;1.8;;;;;;;30.27;48.32129;94982.15;;;;
2020/08/20 09:33:11;;;;;;;1.9;1.8;;;;;;;30.27;48.32129;94982.15;;;;
2020/08/20 09:34:19;;;;;;;1.9;1.8;;;;;;;30.27;48.32129;94982.15;;;;
2020/08/20 09:35:25;;;;;;;1.95;1.75;;;;;;;31.02;46.97852;94990.57;;;;
2020/08/20 09:36:30;;;;;;;1.95;1.75;;;;;;;31.02;46.97852;94990.57;;;;
2020/08/20 09:37:35;;;;;;;1.95;1.75;;;;;;;31.02;46.97852;94990.57;;;;
2020/08/20 09:38:43;;;;;;;1.95;1.75;;;;;;;31.02;46.97852;94990.57;;;;
2020/08/20 09:39:49;;;;;;;1.95;1.75;;;;;;;31.02;46.97852;94990.57;;;;
2020/08/20 09:40:54;;;;;;;1.95;1.75;;;;;;;31.02;46.97852;94990.57;;;;
2020/08/20 09:41:58;;;;;;;1.95;1.75;;;;;;;31.02;46.97852;94990.57;;;;
2020/08/20 09:43:05;;;;;;;1.95;1.75;;;;;;;31.02;46.97852;94990.57;;;;
2020/08/20 09:44:11;;;;;;;1.95;1.75;;;;;;;31.02;46.97852;94990.57;;;;
2020/08/20 09:45:18;;;;;;;3.35;2.1;;;;;;;33.51;43.01758;94989.43;;;;
2020/08/20 09:46:25;;;;;;;3.35;2.1;;;;;;;33.51;43.01758;94989.43;;;;
2020/08/20 09:47:31;;;;;;;3.35;2.1;;;;;;;33.51;43.01758;94989.43;;;;
2020/08/20 09:48:41;;;;;;;3.35;2.1;;;;;;;33.51;43.01758;94989.43;;;;
2020/08/20 09:49:46;;;;;;;3.35;2.1;;;;;;;33.51;43.01758;94989.43;;;;
2020/08/20 09:50:52;;;;;;;3.35;2.1;;;;;;;33.51;43.01758;94989.43;;;;
2020/08/20 09:51:57;;;;;;;3.35;2.1;;;;;;;33.51;43.01758;94989.43;;;;
2020/08/20 09:53:02;;;;;;;3.35;2.1;;;;;;;33.51;43.01758;94989.43;;;;
2020/08/20 09:54:14;;;;;;;3.35;2.1;;;;;;;33.51;43.01758;94989.43;;;;
2020/08/20 09:55:19;;;;;;;3.35;2.1;;;;;;;33.51;43.01758;94989.43;;;;
2020/08/20 09:56:25;;;;;;;2;1.8;;;;;;;39.37;36.28027;94996.86;;;;
2020/08/20 09:57:33;;;;;;;2;1.8;;;;;;;39.37;36.28027;94996.86;;;;
2020/08/20 09:58:38;;;;;;;2;1.8;;;;;;;39.37;36.28027;94996.86;;;;
2020/08/20 09:59:44;;;;;;;2;1.8;;;;;;;39.37;36.28027;94996.86;;;;
2020/08/20 10:00:48;;;;;;;2;1.8;;;;;;;39.37;36.28027;94996.86;;;;
2020/08/20 10:01:56;;;;;;;2;1.8;;;;;;;39.37;36.28027;94996.86;;;;
2020/08/20 10:03:01;;;;;;;2;1.8;;;;;;;39.37;36.28027;94996.86;;;;
2020/08/20 10:04:09;;;;;;;2;1.8;;;;;;;39.37;36.28027;94996.86;;;;
2020/08/20 10:05:15;;;;;;;2;1.8;;;;;;;39.37;36.28027;94996.86;;;;
2020/08/20 10:06:20;;;;;;;2;1.8;;;;;;;39.37;36.28027;94996.86;;;;
2020/08/20 10:07:28;;;;;;;1.9;1.8;;;;;;;43.08;31.79785;95002.73;;;;
2020/08/20 10:08:33;;;;;;;1.9;1.8;;;;;;;43.08;31.79785;95002.73;;;;
2020/08/20 10:09:36;;;;;;;1.9;1.8;;;;;;;43.08;31.79785;95002.73;;;;
2020/08/20 10:10:41;;;;;;;1.9;1.8;;;;;;;43.08;31.79785;95002.73;;;;
2020/08/20 10:11:47;;;;;;;1.9;1.8;;;;;;;43.08;31.79785;95002.73;;;;
2020/08/20 10:12:52;;;;;;;1.9;1.8;;;;;;;43.08;31.79785;95002.73;;;;
2020/08/20 10:13:56;;;;;;;1.9;1.8;;;;;;;43.08;31.79785;95002.73;;;;
2020/08/20 10:15:03;;;;;;;1.9;1.8;;;;;;;43.08;31.79785;95002.73;;;;
2020/08/20 10:16:11;;;;;;;1.9;1.8;;;;;;;43.08;31.79785;95002.73;;;;
2020/08/20 10:17:16;;;;;;;2.2;1.9;;;;;;;44.93;29.35059;94991.63;;;;
2020/08/20 10:18:23;;;;;;;2.2;1.9;;;;;;;44.93;29.35059;94991.63;;;;
2020/08/20 10:19:29;;;;;;;2.2;1.9;;;;;;;44.93;29.35059;94991.63;;;;
2020/08/20 10:20:35;;;;;;;2.2;1.9;;;;;;;44.93;29.35059;94991.63;;;;
2020/08/20 10:21:40;;;;;;;2.2;1.9;;;;;;;44.93;29.35059;94991.63;;;;
2020/08/20 10:22:46;;;;;;;2.2;1.9;;;;;;;44.93;29.35059;94991.63;;;;
2020/08/20 10:23:53;;;;;;;2.2;1.9;;;;;;;44.93;29.35059;94991.63;;;;